createdAt,value
2022-11-21T00:01:52.210Z,67.13
2022-11-21T00:04:23.234Z,67.06
2022-11-21T00:06:54.447Z,67.31
2022-11-21T00:09:25.333Z,67.25
2022-11-21T00:11:56.308Z,67.26
2022-11-21T00:14:27.741Z,67.46
2022-11-21T00:16:58.820Z,67.38
2022-11-21T00:19:29.730Z,67.38
2022-11-21T00:22:00.641Z,67.08
2022-11-21T00:24:31.524Z,67.28
2022-11-21T00:27:02.489Z,67.10
2022-11-21T00:29:33.534Z,67.29
2022-11-21T00:32:04.816Z,67.09
2022-11-21T00:34:35.770Z,67.21
2022-11-21T00:37:06.770Z,67.17
2022-11-21T00:39:37.687Z,67.18
2022-11-21T00:42:08.697Z,67.17
2022-11-21T00:44:39.622Z,66.96
2022-11-21T00:47:10.630Z,66.79
2022-11-21T00:49:41.538Z,66.93
2022-11-21T00:52:12.502Z,66.80
2022-11-21T00:54:43.411Z,66.91
2022-11-21T00:57:14.396Z,66.95
2022-11-21T00:59:45.822Z,67.17
2022-11-21T01:02:16.761Z,67.16
2022-11-21T01:04:47.777Z,67.03
2022-11-21T01:07:19.172Z,66.90
2022-11-21T01:09:50.224Z,67.00
2022-11-21T01:12:21.180Z,67.04
2022-11-21T01:14:52.215Z,66.59
2022-11-21T01:17:23.143Z,66.77
2022-11-21T01:19:54.314Z,66.92
2022-11-21T01:22:25.235Z,66.75
2022-11-21T01:24:56.230Z,66.69
2022-11-21T01:27:27.184Z,66.46
2022-11-21T01:29:58.517Z,66.54
2022-11-21T01:32:29.447Z,66.58
2022-11-21T01:35:00.421Z,66.46
2022-11-21T01:37:31.328Z,66.89
2022-11-21T01:40:02.281Z,66.53
2022-11-21T01:42:50.888Z,66.48
2022-11-21T01:45:55.731Z,66.63
2022-11-21T01:48:33.857Z,66.82
2022-11-21T01:51:13.920Z,66.69
2022-11-21T01:53:49.607Z,66.55
2022-11-21T01:56:20.911Z,66.58
2022-11-21T01:58:54.872Z,66.58
2022-11-21T02:01:27.700Z,66.89
2022-11-21T02:04:03.144Z,66.63
2022-11-21T02:06:37.302Z,66.85
2022-11-21T02:09:08.919Z,66.57
2022-11-21T02:11:44.698Z,66.53
2022-11-21T02:14:16.052Z,66.53
2022-11-21T02:16:47.266Z,66.54
2022-11-21T02:19:27.028Z,66.76
2022-11-21T02:22:06.475Z,66.88
2022-11-21T02:24:44.556Z,66.94
2022-11-21T02:27:16.021Z,66.66
2022-11-21T02:29:47.286Z,66.73
2022-11-21T02:32:26.310Z,66.92
2022-11-21T02:34:57.255Z,66.82
2022-11-21T02:37:28.328Z,66.92
2022-11-21T02:40:02.192Z,66.80
2022-11-21T02:42:37.897Z,66.69
2022-11-21T02:45:17.476Z,66.56
2022-11-21T02:47:51.282Z,66.65
2022-11-21T02:50:27.978Z,66.68
2022-11-21T02:52:58.982Z,66.79
2022-11-21T02:55:30.034Z,66.68
2022-11-21T02:58:04.821Z,66.65
2022-11-21T03:00:38.102Z,66.70
2022-11-21T03:03:10.078Z,66.84
2022-11-21T03:05:42.216Z,66.64
2022-11-21T03:08:13.193Z,66.67
2022-11-21T03:10:44.181Z,66.95
2022-11-21T03:13:15.132Z,66.90
2022-11-21T03:15:46.071Z,66.62
2022-11-21T03:18:17.011Z,66.65
2022-11-21T03:20:47.956Z,66.84
2022-11-21T03:23:18.892Z,67.01
2022-11-21T03:25:49.816Z,67.02
2022-11-21T03:28:20.813Z,66.84
2022-11-21T03:30:51.731Z,66.87
2022-11-21T03:33:22.716Z,67.08
2022-11-21T03:35:53.702Z,67.00
2022-11-21T03:38:24.691Z,66.93
2022-11-21T03:40:55.652Z,66.99
2022-11-21T03:43:26.714Z,67.03
2022-11-21T03:45:57.639Z,66.98
2022-11-21T03:48:28.586Z,67.12
2022-11-21T03:50:59.522Z,67.25
2022-11-21T03:53:30.497Z,67.13
2022-11-21T03:56:01.489Z,67.09
2022-11-21T03:58:32.527Z,67.05
2022-11-21T04:01:03.880Z,67.06
2022-11-21T04:03:35.162Z,67.13
2022-11-21T04:06:06.340Z,67.19
2022-11-21T04:08:37.369Z,67.24
2022-11-21T04:11:08.636Z,67.11
2022-11-21T04:13:39.700Z,66.99
2022-11-21T04:16:10.782Z,67.08
2022-11-21T04:18:41.731Z,67.02
2022-11-21T04:21:12.742Z,67.13
2022-11-21T04:23:43.679Z,67.13
2022-11-21T04:26:14.617Z,67.15
2022-11-21T04:28:45.543Z,67.19
2022-11-21T04:31:16.614Z,67.10
2022-11-21T04:33:47.571Z,67.24
2022-11-21T04:36:18.542Z,66.97
2022-11-21T04:38:49.503Z,67.00
2022-11-21T04:41:20.650Z,67.23
2022-11-21T04:43:51.603Z,67.22
2022-11-21T04:46:23.005Z,67.20
2022-11-21T04:48:53.990Z,67.29
2022-11-21T04:51:24.969Z,67.24
2022-11-21T04:53:55.882Z,67.22
2022-11-21T04:56:26.901Z,67.35
2022-11-21T04:58:57.918Z,67.27
2022-11-21T05:01:29.103Z,67.07
2022-11-21T05:04:00.138Z,67.46
2022-11-21T05:06:31.153Z,67.07
2022-11-21T05:09:02.971Z,66.94
2022-11-21T05:11:52.061Z,66.98
2022-11-21T05:14:26.598Z,67.15
2022-11-21T05:16:57.900Z,67.07
2022-11-21T05:19:28.947Z,67.37
2022-11-21T05:22:01.743Z,67.38
2022-11-21T05:24:32.715Z,67.35
2022-11-21T05:27:06.612Z,67.46
2022-11-21T05:29:37.614Z,67.42
2022-11-21T05:32:08.724Z,67.51
2022-11-21T05:34:39.681Z,67.21
2022-11-21T05:37:11.747Z,67.32
2022-11-21T05:39:43.485Z,67.42
2022-11-21T05:42:15.116Z,67.40
2022-11-21T05:44:46.756Z,67.59
2022-11-21T05:47:17.727Z,67.42
2022-11-21T05:49:48.683Z,67.60
2022-11-21T05:52:20.789Z,67.51
2022-11-21T05:54:51.831Z,67.47
2022-11-21T05:57:26.157Z,67.67
2022-11-21T05:59:58.737Z,67.61
2022-11-21T06:02:47.467Z,67.66
2022-11-21T06:05:18.744Z,67.95
2022-11-21T06:07:49.733Z,67.76
2022-11-21T06:10:21.201Z,67.82
2022-11-21T06:12:53.324Z,67.84
2022-11-21T06:15:24.437Z,67.57
2022-11-21T06:17:55.742Z,67.86
2022-11-21T06:20:26.725Z,67.94
2022-11-21T06:23:00.723Z,67.58
2022-11-21T06:25:31.640Z,67.61
2022-11-21T06:28:04.604Z,67.76
2022-11-21T06:30:36.047Z,67.71
2022-11-21T06:33:07.720Z,67.56
2022-11-21T06:35:41.023Z,67.84
2022-11-21T06:38:13.914Z,67.88
2022-11-21T06:40:45.352Z,67.72
2022-11-21T06:43:17.066Z,67.75
2022-11-21T06:45:48.304Z,68.08
2022-11-21T06:48:19.773Z,67.86
2022-11-21T06:50:50.845Z,67.56
2022-11-21T06:53:22.233Z,68.02
2022-11-21T06:55:53.655Z,68.52
2022-11-21T06:58:25.247Z,68.71
2022-11-21T07:00:56.447Z,68.76
2022-11-21T07:03:27.699Z,68.67
2022-11-21T07:06:01.808Z,68.07
2022-11-21T07:08:35.787Z,67.27
2022-11-21T07:11:25.457Z,66.28
2022-11-21T07:13:56.884Z,64.91
2022-11-21T07:16:31.925Z,64.25
2022-11-21T07:19:02.994Z,63.56
2022-11-21T07:21:34.562Z,63.02
2022-11-21T07:24:06.725Z,62.24
2022-11-21T07:26:37.930Z,61.41
2022-11-21T07:29:09.583Z,59.99
2022-11-21T07:31:40.620Z,59.35
2022-11-21T07:34:11.723Z,58.67
2022-11-21T07:36:42.740Z,58.34
2022-11-21T07:39:14.109Z,58.23
2022-11-21T07:41:45.309Z,56.80
2022-11-21T07:44:16.358Z,55.91
2022-11-21T07:46:50.866Z,55.64
2022-11-21T07:49:21.861Z,54.32
2022-11-21T07:51:52.842Z,53.79
2022-11-21T07:54:23.978Z,53.84
2022-11-21T07:56:55.486Z,52.15
2022-11-21T07:59:26.860Z,51.60
2022-11-21T08:01:58.595Z,50.76
2022-11-21T08:04:30.951Z,50.54
2022-11-21T08:07:02.276Z,49.47
2022-11-21T08:09:38.649Z,49.27
2022-11-21T08:12:12.086Z,48.76
2022-11-21T08:14:43.411Z,47.62
2022-11-21T08:17:14.959Z,47.02
2022-11-21T08:19:45.882Z,47.02
2022-11-21T08:22:17.524Z,45.42
2022-11-21T08:24:48.611Z,44.17
2022-11-21T08:27:21.978Z,44.18
2022-11-21T08:29:53.184Z,44.83
2022-11-21T08:32:24.289Z,44.67
2022-11-21T08:34:55.241Z,44.01
2022-11-21T08:37:27.798Z,43.49
2022-11-21T08:40:00.834Z,43.06
2022-11-21T08:42:32.232Z,42.17
2022-11-21T08:45:03.474Z,41.80
2022-11-21T08:47:36.634Z,42.13
2022-11-21T08:50:09.649Z,42.33
2022-11-21T08:52:40.986Z,41.52
2022-11-21T08:55:12.784Z,41.78
2022-11-21T08:57:44.339Z,41.50
2022-11-21T09:00:17.706Z,40.64
2022-11-21T09:02:48.778Z,39.93
2022-11-21T09:05:20.632Z,39.36
2022-11-21T09:07:56.564Z,39.00
2022-11-21T09:10:29.120Z,39.50
2022-11-21T09:13:02.535Z,40.56
2022-11-21T09:15:51.289Z,41.21
2022-11-21T09:18:22.745Z,41.13
2022-11-21T09:20:54.021Z,40.79
2022-11-21T09:23:25.183Z,40.94
2022-11-21T09:25:56.256Z,41.09
2022-11-21T09:28:27.558Z,41.10
2022-11-21T09:30:59.184Z,40.76
2022-11-21T09:33:30.384Z,39.67
2022-11-21T09:36:02.819Z,40.42
2022-11-21T09:38:33.774Z,40.90
2022-11-21T09:41:32.052Z,40.36
2022-11-21T09:44:14.965Z,40.50
2022-11-21T09:46:50.282Z,40.71
2022-11-21T09:49:23.316Z,40.23
2022-11-21T09:51:55.727Z,39.84
2022-11-21T09:54:33.816Z,39.58
2022-11-21T09:57:04.914Z,39.51
2022-11-21T09:59:39.614Z,40.18
2022-11-21T10:02:17.447Z,40.12
2022-11-21T10:04:50.286Z,39.96
2022-11-21T10:07:27.086Z,39.71
2022-11-21T10:10:20.573Z,39.45
2022-11-21T10:13:10.820Z,39.29
2022-11-21T10:15:56.049Z,39.06
2022-11-21T10:19:00.860Z,39.80
2022-11-21T10:21:50.903Z,40.80
2022-11-21T10:24:49.610Z,41.32
2022-11-21T10:27:28.019Z,42.29
2022-11-21T10:30:04.422Z,42.83
2022-11-21T10:32:40.515Z,42.97
2022-11-21T10:35:21.114Z,42.67
2022-11-21T10:37:55.134Z,42.97
2022-11-21T10:40:45.734Z,43.76
2022-11-21T10:43:49.553Z,44.47
2022-11-21T10:46:20.732Z,44.64
2022-11-21T10:49:00.699Z,44.87
2022-11-21T10:51:47.194Z,44.97
2022-11-21T10:54:33.823Z,45.32
2022-11-21T10:57:14.362Z,45.51
2022-11-21T11:00:01.206Z,45.57
2022-11-21T11:02:32.352Z,45.75
2022-11-21T11:05:23.287Z,45.94
2022-11-21T11:08:06.632Z,46.23
2022-11-21T11:10:40.291Z,46.24
2022-11-21T11:13:46.404Z,46.62
2022-11-21T11:16:18.454Z,46.58
2022-11-21T11:18:57.873Z,46.58
2022-11-21T11:21:32.346Z,47.07
2022-11-21T11:24:26.223Z,47.42
2022-11-21T11:27:03.136Z,48.18
2022-11-21T11:29:50.345Z,48.14
2022-11-21T11:32:22.325Z,48.42
2022-11-21T11:35:01.342Z,48.76
2022-11-21T11:37:41.109Z,49.00
2022-11-21T11:40:25.496Z,49.12
2022-11-21T11:43:32.814Z,48.98
2022-11-21T11:46:48.044Z,49.65
2022-11-21T11:49:53.164Z,50.28
2022-11-21T11:52:26.610Z,50.19
2022-11-21T11:55:03.379Z,50.42
2022-11-21T11:57:36.747Z,50.67
2022-11-21T12:00:20.829Z,50.69
2022-11-21T12:03:01.457Z,50.75
2022-11-21T12:05:35.604Z,51.13
2022-11-21T12:08:40.705Z,51.65
2022-11-21T12:11:35.159Z,51.62
2022-11-21T12:14:35.234Z,51.68
2022-11-21T12:17:10.739Z,52.36
2022-11-21T12:19:42.416Z,52.38
2022-11-21T12:22:14.011Z,52.68
2022-11-21T12:24:45.569Z,52.69
2022-11-21T12:27:27.673Z,52.89
2022-11-21T12:30:26.519Z,52.75
2022-11-21T12:33:09.285Z,53.29
2022-11-21T12:36:17.263Z,53.49
2022-11-21T12:39:04.440Z,53.52
2022-11-21T12:42:01.582Z,53.82
2022-11-21T12:44:57.819Z,53.83
2022-11-21T12:47:58.149Z,54.30
2022-11-21T12:50:57.105Z,54.23
2022-11-21T12:53:55.099Z,54.60
2022-11-21T12:56:34.530Z,54.31
2022-11-21T12:59:06.211Z,54.56
2022-11-21T13:01:50.523Z,54.64
2022-11-21T13:04:27.876Z,54.75
2022-11-21T13:07:00.850Z,54.96
2022-11-21T13:09:38.257Z,55.10
2022-11-21T13:12:14.840Z,55.05
2022-11-21T13:14:53.491Z,55.17
2022-11-21T13:17:50.921Z,54.91
2022-11-21T13:20:32.480Z,55.07
2022-11-21T13:23:06.705Z,55.63
2022-11-21T13:25:48.919Z,55.34
2022-11-21T13:28:37.753Z,55.60
2022-11-21T13:31:30.391Z,55.66
2022-11-21T13:34:04.205Z,55.86
2022-11-21T13:36:40.422Z,56.23
2022-11-21T13:39:29.500Z,56.24
2022-11-21T13:42:24.695Z,56.10
2022-11-21T13:44:56.097Z,56.22
2022-11-21T13:48:02.145Z,56.18
2022-11-21T13:50:59.028Z,56.62
2022-11-21T13:53:58.207Z,56.75
2022-11-21T13:56:43.156Z,56.35
2022-11-21T13:59:30.522Z,56.70
2022-11-21T14:02:20.828Z,56.66
2022-11-21T14:05:06.198Z,56.87
2022-11-21T14:07:40.514Z,57.34
2022-11-21T14:10:32.067Z,57.00
2022-11-21T14:13:05.672Z,56.87
2022-11-21T14:15:44.445Z,57.07
2022-11-21T14:18:23.713Z,57.38
2022-11-21T14:20:58.346Z,57.36
2022-11-21T14:23:32.145Z,57.31
2022-11-21T14:26:06.552Z,57.66
2022-11-21T14:28:39.556Z,57.69
2022-11-21T14:31:12.419Z,57.64
2022-11-21T14:33:44.948Z,57.63
2022-11-21T14:36:19.680Z,57.37
2022-11-21T14:39:13.885Z,57.42
2022-11-21T14:41:49.345Z,57.69
2022-11-21T14:44:22.626Z,57.79
2022-11-21T14:47:09.989Z,57.68
2022-11-21T14:49:49.638Z,58.05
2022-11-21T14:52:26.455Z,58.22
2022-11-21T14:55:29.799Z,58.34
2022-11-21T14:57:52.214Z,58.04
2022-11-21T15:03:22.474Z,58.37
2022-11-21T15:06:05.813Z,58.34
2022-11-21T15:09:18.303Z,58.32
2022-11-21T15:11:39.693Z,58.46
2022-11-21T15:14:26.030Z,58.57
2022-11-21T15:16:59.154Z,58.46
2022-11-21T15:19:32.664Z,58.67
2022-11-21T15:22:05.454Z,58.87
2022-11-21T15:24:44.778Z,58.81
2022-11-21T15:27:35.009Z,59.09
2022-11-21T15:30:21.231Z,58.64
2022-11-21T15:33:10.343Z,58.97
2022-11-21T15:35:58.199Z,58.96
2022-11-21T15:38:34.665Z,59.15
2022-11-21T15:41:27.401Z,59.18
2022-11-21T15:44:20.161Z,59.60
2022-11-21T15:46:53.984Z,59.68
2022-11-21T15:49:32.915Z,59.93
2022-11-21T15:52:16.378Z,60.29
2022-11-21T15:54:48.419Z,60.08
2022-11-21T15:59:53.200Z,60.40
2022-11-21T16:02:24.247Z,60.27
2022-11-21T16:04:55.367Z,60.40
2022-11-21T16:07:26.341Z,60.59
2022-11-21T16:09:57.797Z,60.61
2022-11-21T16:12:28.860Z,60.94
2022-11-21T16:14:59.898Z,61.04
2022-11-21T16:17:31.376Z,61.20
2022-11-21T16:20:02.595Z,61.06
2022-11-21T16:22:34.027Z,61.01
2022-11-21T16:25:05.485Z,61.27
2022-11-21T16:27:36.491Z,61.28
2022-11-21T16:30:09.614Z,61.38
2022-11-21T16:32:40.714Z,61.63
2022-11-21T16:35:12.463Z,61.69
2022-11-21T16:37:43.442Z,61.54
2022-11-21T16:40:15.073Z,61.77
2022-11-21T16:42:47.013Z,61.69
2022-11-21T16:45:18.574Z,62.02
2022-11-21T16:47:49.837Z,62.10
2022-11-21T16:50:22.218Z,62.36
2022-11-21T16:52:53.251Z,62.23
2022-11-21T16:55:24.804Z,62.13
2022-11-21T16:57:58.017Z,62.27
2022-11-21T17:00:30.573Z,62.13
2022-11-21T17:03:02.003Z,62.30
2022-11-21T17:05:33.287Z,62.19
2022-11-21T17:08:04.386Z,62.34
2022-11-21T17:10:35.582Z,62.56
2022-11-21T17:13:06.783Z,62.60
2022-11-21T17:15:37.937Z,62.55
2022-11-21T17:18:09.092Z,62.75
2022-11-21T17:20:40.202Z,62.85
2022-11-21T17:23:11.486Z,63.23
2022-11-21T17:25:42.457Z,63.11
2022-11-21T17:28:13.624Z,63.09
2022-11-21T17:30:44.740Z,63.19
2022-11-21T17:33:15.900Z,63.40
2022-11-21T17:35:47.013Z,63.43
2022-11-21T17:38:18.597Z,63.61
2022-11-21T17:40:59.726Z,63.62
2022-11-21T17:43:31.382Z,63.56
2022-11-21T17:46:09.294Z,63.69
2022-11-21T17:48:42.357Z,63.72
2022-11-21T17:51:19.414Z,63.92
2022-11-21T17:53:52.772Z,63.96
2022-11-21T17:56:26.623Z,63.99
2022-11-21T17:58:59.284Z,63.89
2022-11-21T18:01:33.671Z,63.79
2022-11-21T18:04:11.844Z,63.69
2022-11-21T18:06:45.073Z,63.69
2022-11-21T18:09:39.642Z,63.87
2022-11-21T18:12:15.299Z,63.94
2022-11-21T18:14:47.549Z,64.12
2022-11-21T18:17:18.833Z,64.29
2022-11-21T18:19:52.097Z,64.06
2022-11-21T18:22:29.223Z,64.27
2022-11-21T18:25:00.953Z,64.26
2022-11-21T18:27:33.757Z,64.35
2022-11-21T18:30:23.278Z,64.22
2022-11-21T18:33:22.106Z,64.02
2022-11-21T18:36:42.759Z,63.83
2022-11-21T18:43:40.602Z,64.58
2022-11-21T18:47:20.601Z,64.46
2022-11-21T18:49:08.857Z,64.34
2022-11-21T18:51:40.191Z,64.66
2022-11-21T18:54:15.314Z,64.60
2022-11-21T18:56:47.352Z,64.61
2022-11-21T18:59:19.829Z,64.47
2022-11-21T19:01:53.334Z,64.68
2022-11-21T19:04:28.710Z,64.71
2022-11-21T19:07:00.265Z,64.60
2022-11-21T19:09:32.827Z,64.52
2022-11-21T19:12:04.510Z,64.35
2022-11-21T19:14:35.941Z,64.11
2022-11-21T19:17:09.884Z,64.39
2022-11-21T19:19:41.475Z,64.83
2022-11-21T19:22:13.734Z,64.71
2022-11-21T19:24:45.230Z,64.58
2022-11-21T19:27:16.438Z,64.55
2022-11-21T19:29:52.249Z,64.87
2022-11-21T19:32:24.093Z,64.64
2022-11-21T19:34:58.850Z,64.77
2022-11-21T19:37:32.400Z,64.61
2022-11-21T19:40:03.681Z,64.41
2022-11-21T19:42:35.100Z,64.69
2022-11-21T19:45:07.149Z,64.82
2022-11-21T19:47:38.618Z,64.80
2022-11-21T19:50:12.666Z,65.15
2022-11-21T19:52:43.866Z,65.06
2022-11-21T19:55:14.844Z,65.14
2022-11-21T19:57:46.101Z,64.80
2022-11-21T20:00:22.316Z,64.85
2022-11-21T20:02:53.612Z,64.79
2022-11-21T20:05:24.770Z,65.30
2022-11-21T20:08:01.663Z,65.19
2022-11-21T20:10:36.462Z,64.98
2022-11-21T20:13:07.757Z,65.22
2022-11-21T20:15:41.693Z,65.43
2022-11-21T20:18:21.215Z,65.25
2022-11-21T20:20:52.502Z,65.27
2022-11-21T20:23:23.681Z,65.35
2022-11-21T20:25:55.101Z,65.20
2022-11-21T20:28:26.226Z,65.02
2022-11-21T20:31:03.801Z,64.63
2022-11-21T20:33:38.935Z,64.94
2022-11-21T20:36:12.336Z,64.88
2022-11-21T20:38:43.680Z,65.35
2022-11-21T20:41:14.811Z,64.98
2022-11-21T20:44:27.376Z,64.57
2022-11-21T20:46:37.253Z,64.57
2022-11-21T20:49:08.428Z,64.55
2022-11-21T20:54:31.016Z,65.01
2022-11-21T20:57:02.383Z,64.99
2022-11-21T20:59:33.564Z,65.11
2022-11-21T21:02:04.937Z,65.05
2022-11-21T21:04:36.345Z,65.49
2022-11-21T21:07:10.383Z,65.64
2022-11-21T21:09:41.815Z,65.46
2022-11-21T21:12:13.389Z,65.48
2022-11-21T21:14:45.711Z,65.36
2022-11-21T21:17:16.999Z,65.36
2022-11-21T21:19:48.267Z,65.31
2022-11-21T21:22:19.537Z,65.05
2022-11-21T21:24:50.907Z,65.12
2022-11-21T21:27:22.176Z,65.27
2022-11-21T21:29:53.575Z,65.43
2022-11-21T21:32:24.984Z,65.61
2022-11-21T21:34:56.380Z,65.39
2022-11-21T21:37:28.017Z,65.52
2022-11-21T21:39:59.066Z,65.66
2022-11-21T21:42:30.332Z,65.60
2022-11-21T21:45:02.638Z,65.79
2022-11-21T21:47:33.701Z,66.18
2022-11-21T21:50:15.528Z,66.20
2022-11-21T21:52:47.111Z,65.92
2022-11-21T21:55:20.579Z,66.12
2022-11-21T21:57:54.192Z,66.03
2022-11-21T22:00:30.554Z,66.42
2022-11-21T22:03:08.688Z,66.16
2022-11-21T22:05:39.906Z,65.75
2022-11-21T22:08:14.241Z,65.79
2022-11-21T22:10:45.347Z,65.84
2022-11-21T22:13:17.434Z,65.79
2022-11-21T22:15:48.942Z,66.17
2022-11-21T22:18:22.634Z,66.43
2022-11-21T22:20:53.911Z,66.43
2022-11-21T22:23:25.635Z,66.07
2022-11-21T22:26:00.030Z,66.13
2022-11-21T22:28:31.443Z,66.07
2022-11-21T22:31:02.659Z,66.02
2022-11-21T22:33:34.503Z,66.06
2022-11-21T22:36:08.302Z,66.22
2022-11-21T22:38:39.592Z,66.12
2022-11-21T22:41:16.594Z,66.27
2022-11-21T22:43:52.978Z,66.06
2022-11-21T22:46:25.228Z,66.26
2022-11-21T22:48:56.518Z,66.05
2022-11-21T22:51:29.536Z,66.04
2022-11-21T22:54:01.071Z,66.41
2022-11-21T22:56:32.446Z,66.47
2022-11-21T22:59:03.747Z,66.16
2022-11-21T23:01:35.262Z,66.16
2022-11-21T23:04:06.475Z,65.97
2022-11-21T23:06:37.429Z,66.05
2022-11-21T23:09:08.409Z,66.06
2022-11-21T23:11:41.154Z,66.42
2022-11-21T23:14:12.259Z,66.17
2022-11-21T23:16:43.237Z,66.48
2022-11-21T23:19:14.122Z,65.97
2022-11-21T23:21:45.120Z,65.89
2022-11-21T23:24:16.096Z,66.26
2022-11-21T23:26:46.987Z,66.13
2022-11-21T23:29:19.011Z,66.08
2022-11-21T23:31:49.899Z,66.32
2022-11-21T23:34:22.734Z,66.13
2022-11-21T23:36:53.689Z,66.42
2022-11-21T23:39:24.656Z,66.28
2022-11-21T23:41:55.766Z,66.24
2022-11-21T23:44:26.691Z,66.47
2022-11-21T23:46:57.819Z,66.62
2022-11-21T23:49:28.901Z,66.20
2022-11-21T23:51:59.985Z,66.31
2022-11-21T23:54:30.917Z,66.28
2022-11-21T23:57:01.895Z,66.06
2022-11-21T23:59:32.829Z,66.13
